sensor_id;sensor_type;location;lat;lon;timestamp;P1;durP1;ratioP1;P2;durP2;ratioP2
35715;SDS011;21840;44.920;8.616;2023-01-10T00:02:02;6.93;;;3.88;;
35715;SDS011;21840;44.920;8.616;2023-01-10T00:04:28;10.57;;;4.28;;
35715;SDS011;21840;44.920;8.616;2023-01-10T00:06:55;7.13;;;4.28;;
35715;SDS011;21840;44.920;8.616;2023-01-10T00:09:20;8.38;;;4.32;;
35715;SDS011;21840;44.920;8.616;2023-01-10T00:11:46;5.60;;;3.40;;
35715;SDS011;21840;44.920;8.616;2023-01-10T00:14:30;6.70;;;3.65;;
35715;SDS011;21840;44.920;8.616;2023-01-10T00:16:59;6.82;;;3.50;;
35715;SDS011;21840;44.920;8.616;2023-01-10T00:19:26;8.77;;;3.83;;
35715;SDS011;21840;44.920;8.616;2023-01-10T00:21:51;6.10;;;3.05;;
35715;SDS011;21840;44.920;8.616;2023-01-10T00:24:17;8.32;;;2.88;;
35715;SDS011;21840;44.920;8.616;2023-01-10T00:26:46;11.02;;;3.80;;
35715;SDS011;21840;44.920;8.616;2023-01-10T00:31:41;5.97;;;2.90;;
35715;SDS011;21840;44.920;8.616;2023-01-10T00:34:07;4.68;;;2.50;;
35715;SDS011;21840;44.920;8.616;2023-01-10T00:36:32;6.15;;;2.70;;
35715;SDS011;21840;44.920;8.616;2023-01-10T00:38:58;5.32;;;2.35;;
35715;SDS011;21840;44.920;8.616;2023-01-10T00:41:23;5.38;;;2.42;;
35715;SDS011;21840;44.920;8.616;2023-01-10T00:44:07;5.85;;;2.75;;
35715;SDS011;21840;44.920;8.616;2023-01-10T00:46:33;3.75;;;2.22;;
35715;SDS011;21840;44.920;8.616;2023-01-10T00:48:58;5.50;;;2.60;;
35715;SDS011;21840;44.920;8.616;2023-01-10T00:51:24;6.15;;;2.38;;
35715;SDS011;21840;44.920;8.616;2023-01-10T00:53:49;7.93;;;2.25;;
35715;SDS011;21840;44.920;8.616;2023-01-10T00:56:15;5.30;;;2.65;;
35715;SDS011;21840;44.920;8.616;2023-01-10T00:58:40;9.80;;;2.78;;
35715;SDS011;21840;44.920;8.616;2023-01-10T01:01:08;5.32;;;2.60;;
35715;SDS011;21840;44.920;8.616;2023-01-10T01:03:34;9.88;;;5.57;;
35715;SDS011;21840;44.920;8.616;2023-01-10T01:06:03;7.47;;;4.50;;
35715;SDS011;21840;44.920;8.616;2023-01-10T01:08:30;8.60;;;4.68;;
35715;SDS011;21840;44.920;8.616;2023-01-10T01:10:56;7.93;;;4.18;;
35715;SDS011;21840;44.920;8.616;2023-01-10T01:13:21;6.95;;;3.85;;
35715;SDS011;21840;44.920;8.616;2023-01-10T01:15:47;5.10;;;2.75;;
35715;SDS011;21840;44.920;8.616;2023-01-10T01:18:14;5.90;;;3.28;;
35715;SDS011;21840;44.920;8.616;2023-01-10T01:20:42;7.97;;;3.97;;
35715;SDS011;21840;44.920;8.616;2023-01-10T01:23:09;11.63;;;6.38;;
35715;SDS011;21840;44.920;8.616;2023-01-10T01:25:35;11.05;;;5.95;;
35715;SDS011;21840;44.920;8.616;2023-01-10T01:28:00;7.80;;;4.32;;
35715;SDS011;21840;44.920;8.616;2023-01-10T01:30:26;9.23;;;3.97;;
35715;SDS011;21840;44.920;8.616;2023-01-10T01:32:52;7.28;;;3.63;;
35715;SDS011;21840;44.920;8.616;2023-01-10T01:35:17;5.78;;;3.45;;
35715;SDS011;21840;44.920;8.616;2023-01-10T01:37:43;8.07;;;2.83;;
35715;SDS011;21840;44.920;8.616;2023-01-10T01:40:18;5.10;;;2.65;;
35715;SDS011;21840;44.920;8.616;2023-01-10T01:42:45;6.18;;;3.65;;
35715;SDS011;21840;44.920;8.616;2023-01-10T01:53:17;8.98;;;4.35;;
35715;SDS011;21840;44.920;8.616;2023-01-10T01:55:49;7.10;;;4.32;;
35715;SDS011;21840;44.920;8.616;2023-01-10T01:58:17;5.63;;;3.53;;
35715;SDS011;21840;44.920;8.616;2023-01-10T02:00:49;6.53;;;3.45;;
35715;SDS011;21840;44.920;8.616;2023-01-10T02:03:14;6.25;;;3.50;;
35715;SDS011;21840;44.920;8.616;2023-01-10T02:05:40;5.07;;;2.60;;
35715;SDS011;21840;44.920;8.616;2023-01-10T02:08:08;5.05;;;2.65;;
35715;SDS011;21840;44.920;8.616;2023-01-10T02:13:22;6.57;;;2.38;;
35715;SDS011;21840;44.920;8.616;2023-01-10T02:15:50;6.80;;;2.50;;
35715;SDS011;21840;44.920;8.616;2023-01-10T02:18:16;6.60;;;2.90;;
35715;SDS011;21840;44.920;8.616;2023-01-10T02:20:57;4.53;;;2.38;;
35715;SDS011;21840;44.920;8.616;2023-01-10T02:40:09;6.90;;;3.47;;
35715;SDS011;21840;44.920;8.616;2023-01-10T02:42:46;6.78;;;3.50;;
35715;SDS011;21840;44.920;8.616;2023-01-10T02:45:29;6.78;;;2.70;;
35715;SDS011;21840;44.920;8.616;2023-01-10T02:48:00;5.53;;;2.47;;
35715;SDS011;21840;44.920;8.616;2023-01-10T02:50:30;4.43;;;2.10;;
35715;SDS011;21840;44.920;8.616;2023-01-10T02:55:57;7.18;;;2.40;;
35715;SDS011;21840;44.920;8.616;2023-01-10T03:09:51;5.57;;;2.15;;
35715;SDS011;21840;44.920;8.616;2023-01-10T03:14:51;5.15;;;2.42;;
35715;SDS011;21840;44.920;8.616;2023-01-10T03:17:19;7.95;;;2.00;;
35715;SDS011;21840;44.920;8.616;2023-01-10T03:19:49;4.63;;;2.35;;
35715;SDS011;21840;44.920;8.616;2023-01-10T03:22:18;3.90;;;2.20;;
35715;SDS011;21840;44.920;8.616;2023-01-10T03:24:45;4.68;;;2.20;;
35715;SDS011;21840;44.920;8.616;2023-01-10T03:33:12;6.75;;;2.60;;
35715;SDS011;21840;44.920;8.616;2023-01-10T03:38:30;4.53;;;2.53;;
35715;SDS011;21840;44.920;8.616;2023-01-10T03:43:44;3.53;;;2.17;;
35715;SDS011;21840;44.920;8.616;2023-01-10T03:46:48;7.68;;;2.20;;
35715;SDS011;21840;44.920;8.616;2023-01-10T03:49:19;5.40;;;2.35;;
35715;SDS011;21840;44.920;8.616;2023-01-10T03:51:48;7.35;;;2.90;;
35715;SDS011;21840;44.920;8.616;2023-01-10T03:54:14;4.53;;;2.55;;
35715;SDS011;21840;44.920;8.616;2023-01-10T03:56:47;4.35;;;2.28;;
35715;SDS011;21840;44.920;8.616;2023-01-10T03:59:18;5.53;;;2.90;;
35715;SDS011;21840;44.920;8.616;2023-01-10T04:01:47;4.57;;;2.65;;
35715;SDS011;21840;44.920;8.616;2023-01-10T04:04:12;8.25;;;2.58;;
35715;SDS011;21840;44.920;8.616;2023-01-10T04:06:37;4.75;;;2.75;;
35715;SDS011;21840;44.920;8.616;2023-01-10T04:09:03;8.30;;;2.95;;
35715;SDS011;21840;44.920;8.616;2023-01-10T04:11:29;5.55;;;3.15;;
35715;SDS011;21840;44.920;8.616;2023-01-10T04:13:54;4.38;;;2.72;;
35715;SDS011;21840;44.920;8.616;2023-01-10T04:16:19;3.90;;;2.30;;
35715;SDS011;21840;44.920;8.616;2023-01-10T04:18:45;5.00;;;2.60;;
35715;SDS011;21840;44.920;8.616;2023-01-10T04:21:10;5.30;;;3.00;;
35715;SDS011;21840;44.920;8.616;2023-01-10T04:23:36;4.93;;;3.08;;
35715;SDS011;21840;44.920;8.616;2023-01-10T04:26:01;4.80;;;2.70;;
35715;SDS011;21840;44.920;8.616;2023-01-10T04:28:27;7.88;;;3.45;;
35715;SDS011;21840;44.920;8.616;2023-01-10T04:30:52;5.13;;;2.65;;
35715;SDS011;21840;44.920;8.616;2023-01-10T04:33:18;5.63;;;2.17;;
35715;SDS011;21840;44.920;8.616;2023-01-10T04:35:47;4.63;;;1.90;;
35715;SDS011;21840;44.920;8.616;2023-01-10T04:38:14;3.28;;;1.90;;
35715;SDS011;21840;44.920;8.616;2023-01-10T04:40:40;2.58;;;1.80;;
35715;SDS011;21840;44.920;8.616;2023-01-10T04:43:06;4.80;;;2.33;;
35715;SDS011;21840;44.920;8.616;2023-01-10T04:45:31;5.28;;;2.47;;
35715;SDS011;21840;44.920;8.616;2023-01-10T04:47:57;4.60;;;2.50;;
35715;SDS011;21840;44.920;8.616;2023-01-10T04:50:24;5.57;;;1.73;;
35715;SDS011;21840;44.920;8.616;2023-01-10T04:52:50;3.30;;;1.77;;
35715;SDS011;21840;44.920;8.616;2023-01-10T04:55:15;6.65;;;1.95;;
35715;SDS011;21840;44.920;8.616;2023-01-10T04:57:41;3.40;;;1.88;;
35715;SDS011;21840;44.920;8.616;2023-01-10T05:00:07;4.90;;;1.65;;
35715;SDS011;21840;44.920;8.616;2023-01-10T05:02:34;3.47;;;2.17;;
35715;SDS011;21840;44.920;8.616;2023-01-10T05:04:59;4.45;;;1.90;;
35715;SDS011;21840;44.920;8.616;2023-01-10T05:07:25;3.63;;;1.85;;
35715;SDS011;21840;44.920;8.616;2023-01-10T05:09:51;3.60;;;1.98;;
35715;SDS011;21840;44.920;8.616;2023-01-10T05:12:16;4.03;;;2.08;;
35715;SDS011;21840;44.920;8.616;2023-01-10T05:14:42;5.10;;;1.88;;
35715;SDS011;21840;44.920;8.616;2023-01-10T05:17:08;3.05;;;1.58;;
35715;SDS011;21840;44.920;8.616;2023-01-10T05:19:34;3.42;;;2.00;;
35715;SDS011;21840;44.920;8.616;2023-01-10T05:21:59;4.15;;;1.83;;
35715;SDS011;21840;44.920;8.616;2023-01-10T05:24:25;2.72;;;1.30;;
35715;SDS011;21840;44.920;8.616;2023-01-10T05:26:51;3.22;;;1.73;;
35715;SDS011;21840;44.920;8.616;2023-01-10T05:29:16;5.25;;;2.90;;
35715;SDS011;21840;44.920;8.616;2023-01-10T05:31:42;10.13;;;5.07;;
35715;SDS011;21840;44.920;8.616;2023-01-10T05:34:09;13.27;;;5.07;;
35715;SDS011;21840;44.920;8.616;2023-01-10T05:36:36;7.03;;;3.35;;
35715;SDS011;21840;44.920;8.616;2023-01-10T05:39:02;4.97;;;2.28;;
35715;SDS011;21840;44.920;8.616;2023-01-10T05:41:28;3.60;;;2.00;;
35715;SDS011;21840;44.920;8.616;2023-01-10T05:43:53;5.63;;;2.15;;
35715;SDS011;21840;44.920;8.616;2023-01-10T05:46:19;3.25;;;2.03;;
35715;SDS011;21840;44.920;8.616;2023-01-10T05:48:44;3.47;;;1.80;;
35715;SDS011;21840;44.920;8.616;2023-01-10T05:51:10;10.98;;;1.88;;
35715;SDS011;21840;44.920;8.616;2023-01-10T05:53:35;5.60;;;1.40;;
35715;SDS011;21840;44.920;8.616;2023-01-10T05:56:02;6.13;;;1.80;;
35715;SDS011;21840;44.920;8.616;2023-01-10T05:58:28;3.58;;;1.90;;
35715;SDS011;21840;44.920;8.616;2023-01-10T06:00:54;7.22;;;1.67;;
35715;SDS011;21840;44.920;8.616;2023-01-10T06:03:21;4.05;;;1.70;;
35715;SDS011;21840;44.920;8.616;2023-01-10T06:05:47;5.30;;;1.73;;
35715;SDS011;21840;44.920;8.616;2023-01-10T06:08:12;7.55;;;1.65;;
35715;SDS011;21840;44.920;8.616;2023-01-10T06:10:38;2.30;;;1.30;;
35715;SDS011;21840;44.920;8.616;2023-01-10T06:13:04;3.58;;;1.17;;
35715;SDS011;21840;44.920;8.616;2023-01-10T06:15:30;1.98;;;0.80;;
35715;SDS011;21840;44.920;8.616;2023-01-10T06:17:56;3.28;;;1.60;;
35715;SDS011;21840;44.920;8.616;2023-01-10T06:20:22;4.50;;;1.80;;
35715;SDS011;21840;44.920;8.616;2023-01-10T06:22:47;6.22;;;1.70;;
35715;SDS011;21840;44.920;8.616;2023-01-10T06:25:13;3.42;;;1.60;;
35715;SDS011;21840;44.920;8.616;2023-01-10T06:27:39;4.05;;;1.23;;
35715;SDS011;21840;44.920;8.616;2023-01-10T06:30:06;5.25;;;1.52;;
35715;SDS011;21840;44.920;8.616;2023-01-10T06:32:32;2.85;;;1.48;;
35715;SDS011;21840;44.920;8.616;2023-01-10T06:34:58;5.00;;;1.33;;
35715;SDS011;21840;44.920;8.616;2023-01-10T06:37:23;6.28;;;1.50;;
35715;SDS011;21840;44.920;8.616;2023-01-10T06:39:49;6.93;;;1.65;;
35715;SDS011;21840;44.920;8.616;2023-01-10T06:42:15;9.27;;;1.10;;
35715;SDS011;21840;44.920;8.616;2023-01-10T06:44:41;4.90;;;1.75;;
35715;SDS011;21840;44.920;8.616;2023-01-10T06:47:07;4.45;;;2.22;;
35715;SDS011;21840;44.920;8.616;2023-01-10T06:49:32;3.63;;;2.08;;
35715;SDS011;21840;44.920;8.616;2023-01-10T06:51:58;10.70;;;1.63;;
35715;SDS011;21840;44.920;8.616;2023-01-10T06:54:23;3.80;;;1.40;;
35715;SDS011;21840;44.920;8.616;2023-01-10T06:56:49;5.88;;;1.77;;
35715;SDS011;21840;44.920;8.616;2023-01-10T06:59:14;14.07;;;1.90;;
35715;SDS011;21840;44.920;8.616;2023-01-10T07:01:40;13.48;;;2.25;;
35715;SDS011;21840;44.920;8.616;2023-01-10T07:04:06;7.70;;;1.48;;
35715;SDS011;21840;44.920;8.616;2023-01-10T07:06:34;4.30;;;2.00;;
35715;SDS011;21840;44.920;8.616;2023-01-10T07:09:01;8.23;;;1.90;;
35715;SDS011;21840;44.920;8.616;2023-01-10T07:11:27;5.22;;;1.98;;
35715;SDS011;21840;44.920;8.616;2023-01-10T07:13:53;7.65;;;2.17;;
35715;SDS011;21840;44.920;8.616;2023-01-10T07:16:19;10.05;;;1.98;;
35715;SDS011;21840;44.920;8.616;2023-01-10T07:18:44;4.68;;;2.10;;
35715;SDS011;21840;44.920;8.616;2023-01-10T07:21:10;7.60;;;3.40;;
35715;SDS011;21840;44.920;8.616;2023-01-10T07:23:37;17.25;;;4.68;;
35715;SDS011;21840;44.920;8.616;2023-01-10T07:26:04;14.20;;;3.75;;
35715;SDS011;21840;44.920;8.616;2023-01-10T07:28:31;9.73;;;2.90;;
35715;SDS011;21840;44.920;8.616;2023-01-10T07:31:01;5.88;;;2.15;;
35715;SDS011;21840;44.920;8.616;2023-01-10T07:33:29;7.35;;;2.40;;
35715;SDS011;21840;44.920;8.616;2023-01-10T07:35:55;8.20;;;1.92;;
35715;SDS011;21840;44.920;8.616;2023-01-10T07:38:21;8.35;;;2.88;;
35715;SDS011;21840;44.920;8.616;2023-01-10T07:40:47;9.77;;;2.38;;
35715;SDS011;21840;44.920;8.616;2023-01-10T07:43:12;6.25;;;2.60;;
35715;SDS011;21840;44.920;8.616;2023-01-10T07:45:38;4.80;;;2.30;;
35715;SDS011;21840;44.920;8.616;2023-01-10T07:48:04;4.68;;;1.90;;
35715;SDS011;21840;44.920;8.616;2023-01-10T07:50:31;5.03;;;3.08;;
35715;SDS011;21840;44.920;8.616;2023-01-10T07:52:59;13.38;;;3.35;;
35715;SDS011;21840;44.920;8.616;2023-01-10T07:55:26;8.85;;;2.70;;
35715;SDS011;21840;44.920;8.616;2023-01-10T07:57:51;12.13;;;3.30;;
35715;SDS011;21840;44.920;8.616;2023-01-10T08:00:17;13.95;;;3.25;;
35715;SDS011;21840;44.920;8.616;2023-01-10T08:02:43;14.43;;;3.35;;
35715;SDS011;21840;44.920;8.616;2023-01-10T08:05:10;13.10;;;2.92;;
35715;SDS011;21840;44.920;8.616;2023-01-10T08:07:36;16.63;;;3.50;;
35715;SDS011;21840;44.920;8.616;2023-01-10T08:10:02;15.13;;;3.63;;
35715;SDS011;21840;44.920;8.616;2023-01-10T08:12:29;16.85;;;3.10;;
35715;SDS011;21840;44.920;8.616;2023-01-10T08:14:54;13.68;;;2.58;;
35715;SDS011;21840;44.920;8.616;2023-01-10T08:17:20;8.77;;;2.72;;
35715;SDS011;21840;44.920;8.616;2023-01-10T08:19:45;9.00;;;2.88;;
35715;SDS011;21840;44.920;8.616;2023-01-10T08:22:11;9.13;;;2.78;;
35715;SDS011;21840;44.920;8.616;2023-01-10T08:24:36;11.63;;;3.10;;
35715;SDS011;21840;44.920;8.616;2023-01-10T08:27:02;17.80;;;3.72;;
35715;SDS011;21840;44.920;8.616;2023-01-10T08:29:28;8.63;;;2.58;;
35715;SDS011;21840;44.920;8.616;2023-01-10T08:31:54;15.18;;;3.10;;
35715;SDS011;21840;44.920;8.616;2023-01-10T08:34:20;16.58;;;3.53;;
35715;SDS011;21840;44.920;8.616;2023-01-10T08:36:48;11.00;;;3.78;;
35715;SDS011;21840;44.920;8.616;2023-01-10T08:39:15;13.00;;;3.17;;
35715;SDS011;21840;44.920;8.616;2023-01-10T08:41:41;9.40;;;2.85;;
35715;SDS011;21840;44.920;8.616;2023-01-10T08:44:07;9.30;;;2.58;;
35715;SDS011;21840;44.920;8.616;2023-01-10T08:46:32;21.85;;;2.72;;
35715;SDS011;21840;44.920;8.616;2023-01-10T08:48:58;10.02;;;1.90;;
35715;SDS011;21840;44.920;8.616;2023-01-10T08:51:24;16.67;;;2.97;;
35715;SDS011;21840;44.920;8.616;2023-01-10T08:53:49;22.33;;;2.95;;
35715;SDS011;21840;44.920;8.616;2023-01-10T08:56:15;9.38;;;2.05;;
35715;SDS011;21840;44.920;8.616;2023-01-10T08:58:41;11.13;;;2.75;;
35715;SDS011;21840;44.920;8.616;2023-01-10T09:01:06;13.75;;;2.67;;
35715;SDS011;21840;44.920;8.616;2023-01-10T09:03:32;5.72;;;1.88;;
35715;SDS011;21840;44.920;8.616;2023-01-10T09:05:59;9.15;;;2.13;;
35715;SDS011;21840;44.920;8.616;2023-01-10T09:08:25;8.43;;;2.60;;
35715;SDS011;21840;44.920;8.616;2023-01-10T09:10:50;7.00;;;3.38;;
35715;SDS011;21840;44.920;8.616;2023-01-10T09:13:16;8.02;;;3.42;;
35715;SDS011;21840;44.920;8.616;2023-01-10T09:15:41;7.05;;;3.03;;
35715;SDS011;21840;44.920;8.616;2023-01-10T09:18:08;6.03;;;2.63;;
35715;SDS011;21840;44.920;8.616;2023-01-10T09:20:36;34.60;;;9.85;;
35715;SDS011;21840;44.920;8.616;2023-01-10T09:23:04;21.92;;;6.85;;
35715;SDS011;21840;44.920;8.616;2023-01-10T09:25:32;9.43;;;2.90;;
35715;SDS011;21840;44.920;8.616;2023-01-10T09:27:58;14.07;;;2.67;;
35715;SDS011;21840;44.920;8.616;2023-01-10T09:30:26;14.30;;;2.70;;
35715;SDS011;21840;44.920;8.616;2023-01-10T09:32:53;16.52;;;2.97;;
35715;SDS011;21840;44.920;8.616;2023-01-10T09:35:20;8.00;;;2.28;;
35715;SDS011;21840;44.920;8.616;2023-01-10T09:37:48;8.18;;;2.30;;
35715;SDS011;21840;44.920;8.616;2023-01-10T09:40:18;14.38;;;2.10;;
35715;SDS011;21840;44.920;8.616;2023-01-10T09:51:28;3.70;;;1.92;;
35715;SDS011;21840;44.920;8.616;2023-01-10T09:53:56;5.93;;;2.28;;
35715;SDS011;21840;44.920;8.616;2023-01-10T09:56:24;6.00;;;2.00;;
35715;SDS011;21840;44.920;8.616;2023-01-10T09:58:50;7.80;;;2.30;;
35715;SDS011;21840;44.920;8.616;2023-01-10T10:01:17;5.05;;;1.92;;
35715;SDS011;21840;44.920;8.616;2023-01-10T10:03:50;8.88;;;2.17;;
35715;SDS011;21840;44.920;8.616;2023-01-10T10:06:17;7.18;;;1.88;;
35715;SDS011;21840;44.920;8.616;2023-01-10T10:08:44;8.23;;;2.30;;
35715;SDS011;21840;44.920;8.616;2023-01-10T10:14:01;8.55;;;2.47;;
35715;SDS011;21840;44.920;8.616;2023-01-10T10:36:35;12.85;;;2.35;;
35715;SDS011;21840;44.920;8.616;2023-01-10T10:39:06;9.93;;;2.15;;
35715;SDS011;21840;44.920;8.616;2023-01-10T10:41:43;11.90;;;2.33;;
35715;SDS011;21840;44.920;8.616;2023-01-10T10:44:21;6.32;;;1.85;;
35715;SDS011;21840;44.920;8.616;2023-01-10T10:46:58;3.60;;;1.63;;
35715;SDS011;21840;44.920;8.616;2023-01-10T10:52:11;10.32;;;2.88;;
35715;SDS011;21840;44.920;8.616;2023-01-10T10:54:43;11.77;;;2.33;;
35715;SDS011;21840;44.920;8.616;2023-01-10T10:57:10;22.13;;;2.50;;
35715;SDS011;21840;44.920;8.616;2023-01-10T10:59:36;9.73;;;2.42;;
35715;SDS011;21840;44.920;8.616;2023-01-10T11:02:08;8.50;;;1.75;;
35715;SDS011;21840;44.920;8.616;2023-01-10T11:05:02;7.93;;;1.90;;
35715;SDS011;21840;44.920;8.616;2023-01-10T11:07:31;2.88;;;1.80;;
35715;SDS011;21840;44.920;8.616;2023-01-10T11:10:00;3.83;;;1.88;;
35715;SDS011;21840;44.920;8.616;2023-01-10T11:12:34;3.97;;;1.42;;
35715;SDS011;21840;44.920;8.616;2023-01-10T11:15:06;4.10;;;1.80;;
35715;SDS011;21840;44.920;8.616;2023-01-10T11:17:32;4.38;;;1.45;;
35715;SDS011;21840;44.920;8.616;2023-01-10T11:20:06;6.05;;;1.60;;
35715;SDS011;21840;44.920;8.616;2023-01-10T11:22:48;7.60;;;1.98;;
35715;SDS011;21840;44.920;8.616;2023-01-10T11:25:18;9.07;;;2.08;;
35715;SDS011;21840;44.920;8.616;2023-01-10T11:27:53;11.48;;;1.73;;
35715;SDS011;21840;44.920;8.616;2023-01-10T11:30:22;5.50;;;1.52;;
35715;SDS011;21840;44.920;8.616;2023-01-10T11:33:01;3.40;;;1.58;;
35715;SDS011;21840;44.920;8.616;2023-01-10T11:35:31;5.10;;;1.50;;
35715;SDS011;21840;44.920;8.616;2023-01-10T11:38:05;4.50;;;1.30;;
35715;SDS011;21840;44.920;8.616;2023-01-10T11:40:55;5.93;;;1.17;;
35715;SDS011;21840;44.920;8.616;2023-01-10T11:43:37;4.35;;;1.17;;
35715;SDS011;21840;44.920;8.616;2023-01-10T11:46:16;3.88;;;1.33;;
35715;SDS011;21840;44.920;8.616;2023-01-10T11:51:23;3.08;;;1.30;;
35715;SDS011;21840;44.920;8.616;2023-01-10T11:53:57;7.50;;;1.40;;
35715;SDS011;21840;44.920;8.616;2023-01-10T11:56:32;4.15;;;1.23;;
35715;SDS011;21840;44.920;8.616;2023-01-10T11:59:06;6.40;;;1.42;;
35715;SDS011;21840;44.920;8.616;2023-01-10T12:01:40;3.47;;;1.00;;
35715;SDS011;21840;44.920;8.616;2023-01-10T12:04:16;3.70;;;1.20;;
35715;SDS011;21840;44.920;8.616;2023-01-10T12:06:47;9.95;;;1.20;;
35715;SDS011;21840;44.920;8.616;2023-01-10T12:09:32;5.55;;;1.30;;
35715;SDS011;21840;44.920;8.616;2023-01-10T12:12:00;2.42;;;1.10;;
35715;SDS011;21840;44.920;8.616;2023-01-10T12:14:28;4.93;;;1.85;;
35715;SDS011;21840;44.920;8.616;2023-01-10T12:16:57;7.13;;;1.83;;
35715;SDS011;21840;44.920;8.616;2023-01-10T12:19:25;2.25;;;0.85;;
35715;SDS011;21840;44.920;8.616;2023-01-10T12:21:52;2.70;;;1.00;;
35715;SDS011;21840;44.920;8.616;2023-01-10T12:24:32;9.85;;;1.98;;
35715;SDS011;21840;44.920;8.616;2023-01-10T12:27:01;3.15;;;1.40;;
35715;SDS011;21840;44.920;8.616;2023-01-10T12:29:28;3.97;;;0.80;;
35715;SDS011;21840;44.920;8.616;2023-01-10T12:31:59;1.20;;;0.90;;
35715;SDS011;21840;44.920;8.616;2023-01-10T12:34:34;3.47;;;1.00;;
35715;SDS011;21840;44.920;8.616;2023-01-10T12:37:13;2.50;;;0.90;;
35715;SDS011;21840;44.920;8.616;2023-01-10T12:39:55;4.88;;;1.33;;
35715;SDS011;21840;44.920;8.616;2023-01-10T12:42:28;3.88;;;0.88;;
35715;SDS011;21840;44.920;8.616;2023-01-10T12:45:41;3.75;;;0.75;;
35715;SDS011;21840;44.920;8.616;2023-01-10T12:48:14;1.50;;;0.98;;
35715;SDS011;21840;44.920;8.616;2023-01-10T12:50:48;3.25;;;0.90;;
35715;SDS011;21840;44.920;8.616;2023-01-10T12:56:03;3.88;;;0.65;;
35715;SDS011;21840;44.920;8.616;2023-01-10T13:00:59;9.13;;;1.10;;
35715;SDS011;21840;44.920;8.616;2023-01-10T13:03:28;2.40;;;1.25;;
35715;SDS011;21840;44.920;8.616;2023-01-10T13:05:56;1.60;;;0.80;;
35715;SDS011;21840;44.920;8.616;2023-01-10T13:08:24;2.90;;;0.75;;
35715;SDS011;21840;44.920;8.616;2023-01-10T13:10:53;2.35;;;1.00;;
35715;SDS011;21840;44.920;8.616;2023-01-10T13:19:00;2.50;;;0.73;;
35715;SDS011;21840;44.920;8.616;2023-01-10T13:21:26;2.20;;;0.90;;
35715;SDS011;21840;44.920;8.616;2023-01-10T13:23:52;5.65;;;0.75;;
35715;SDS011;21840;44.920;8.616;2023-01-10T13:26:23;7.15;;;1.05;;
35715;SDS011;21840;44.920;8.616;2023-01-10T13:28:53;1.08;;;0.70;;
35715;SDS011;21840;44.920;8.616;2023-01-10T13:31:31;2.35;;;0.70;;
35715;SDS011;21840;44.920;8.616;2023-01-10T13:33:59;5.57;;;0.80;;
35715;SDS011;21840;44.920;8.616;2023-01-10T13:36:29;2.58;;;0.90;;
35715;SDS011;21840;44.920;8.616;2023-01-10T13:39:04;3.38;;;0.90;;
35715;SDS011;21840;44.920;8.616;2023-01-10T13:48:12;4.45;;;1.23;;
35715;SDS011;21840;44.920;8.616;2023-01-10T13:56:26;12.40;;;1.40;;
35715;SDS011;21840;44.920;8.616;2023-01-10T14:01:27;1.88;;;1.00;;
35715;SDS011;21840;44.920;8.616;2023-01-10T14:06:53;2.47;;;1.13;;
35715;SDS011;21840;44.920;8.616;2023-01-10T14:12:01;4.97;;;1.25;;
35715;SDS011;21840;44.920;8.616;2023-01-10T14:14:31;2.28;;;1.08;;
35715;SDS011;21840;44.920;8.616;2023-01-10T14:19:46;4.05;;;1.00;;
35715;SDS011;21840;44.920;8.616;2023-01-10T14:22:25;7.13;;;1.08;;
35715;SDS011;21840;44.920;8.616;2023-01-10T14:24:56;6.72;;;1.40;;
35715;SDS011;21840;44.920;8.616;2023-01-10T14:27:23;3.72;;;0.90;;
35715;SDS011;21840;44.920;8.616;2023-01-10T14:29:56;2.83;;;1.20;;
35715;SDS011;21840;44.920;8.616;2023-01-10T14:32:29;1.83;;;1.20;;
35715;SDS011;21840;44.920;8.616;2023-01-10T14:35:02;5.60;;;1.10;;
35715;SDS011;21840;44.920;8.616;2023-01-10T14:40:03;5.20;;;1.23;;
35715;SDS011;21840;44.920;8.616;2023-01-10T14:42:30;4.72;;;1.20;;
35715;SDS011;21840;44.920;8.616;2023-01-10T14:45:00;3.53;;;1.02;;
35715;SDS011;21840;44.920;8.616;2023-01-10T14:47:33;4.57;;;1.35;;
35715;SDS011;21840;44.920;8.616;2023-01-10T14:49:59;5.25;;;2.05;;
35715;SDS011;21840;44.920;8.616;2023-01-10T14:52:26;9.93;;;2.13;;
35715;SDS011;21840;44.920;8.616;2023-01-10T14:55:09;9.50;;;1.50;;
35715;SDS011;21840;44.920;8.616;2023-01-10T14:57:37;5.95;;;1.30;;
35715;SDS011;21840;44.920;8.616;2023-01-10T15:00:15;6.68;;;1.00;;
35715;SDS011;21840;44.920;8.616;2023-01-10T15:02:46;3.35;;;1.02;;
35715;SDS011;21840;44.920;8.616;2023-01-10T15:05:16;7.43;;;1.23;;
35715;SDS011;21840;44.920;8.616;2023-01-10T15:07:44;3.50;;;1.17;;
35715;SDS011;21840;44.920;8.616;2023-01-10T15:10:21;16.00;;;2.03;;
35715;SDS011;21840;44.920;8.616;2023-01-10T15:12:52;11.65;;;2.22;;
35715;SDS011;21840;44.920;8.616;2023-01-10T15:15:23;13.02;;;2.13;;
35715;SDS011;21840;44.920;8.616;2023-01-10T15:17:54;6.45;;;2.15;;
35715;SDS011;21840;44.920;8.616;2023-01-10T15:20:20;9.68;;;1.10;;
35715;SDS011;21840;44.920;8.616;2023-01-10T15:22:47;6.07;;;1.40;;
35715;SDS011;21840;44.920;8.616;2023-01-10T15:25:25;12.05;;;1.80;;
35715;SDS011;21840;44.920;8.616;2023-01-10T15:27:57;12.90;;;2.10;;
35715;SDS011;21840;44.920;8.616;2023-01-10T15:30:25;23.08;;;2.05;;
35715;SDS011;21840;44.920;8.616;2023-01-10T15:32:53;8.55;;;1.70;;
35715;SDS011;21840;44.920;8.616;2023-01-10T15:35:21;7.88;;;1.85;;
35715;SDS011;21840;44.920;8.616;2023-01-10T15:37:51;18.33;;;2.17;;
35715;SDS011;21840;44.920;8.616;2023-01-10T15:40:21;10.73;;;2.08;;
35715;SDS011;21840;44.920;8.616;2023-01-10T15:45:41;5.90;;;1.75;;
35715;SDS011;21840;44.920;8.616;2023-01-10T15:51:26;8.43;;;1.50;;
35715;SDS011;21840;44.920;8.616;2023-01-10T15:59:19;5.72;;;1.85;;
35715;SDS011;21840;44.920;8.616;2023-01-10T16:01:53;14.18;;;1.85;;
35715;SDS011;21840;44.920;8.616;2023-01-10T16:04:21;8.52;;;1.70;;
35715;SDS011;21840;44.920;8.616;2023-01-10T16:06:47;8.55;;;1.98;;
35715;SDS011;21840;44.920;8.616;2023-01-10T16:09:20;4.63;;;1.75;;
35715;SDS011;21840;44.920;8.616;2023-01-10T16:11:47;7.15;;;1.77;;
35715;SDS011;21840;44.920;8.616;2023-01-10T16:14:33;11.73;;;2.08;;
35715;SDS011;21840;44.920;8.616;2023-01-10T16:16:59;9.93;;;1.70;;
35715;SDS011;21840;44.920;8.616;2023-01-10T16:19:25;9.85;;;1.90;;
35715;SDS011;21840;44.920;8.616;2023-01-10T16:21:51;8.75;;;1.92;;
35715;SDS011;21840;44.920;8.616;2023-01-10T16:24:24;9.05;;;1.55;;
35715;SDS011;21840;44.920;8.616;2023-01-10T16:26:52;4.75;;;1.85;;
35715;SDS011;21840;44.920;8.616;2023-01-10T16:29:19;11.30;;;2.08;;
35715;SDS011;21840;44.920;8.616;2023-01-10T16:31:46;7.50;;;1.58;;
35715;SDS011;21840;44.920;8.616;2023-01-10T16:34:16;12.63;;;2.63;;
35715;SDS011;21840;44.920;8.616;2023-01-10T16:36:41;13.10;;;3.30;;
35715;SDS011;21840;44.920;8.616;2023-01-10T16:39:11;32.67;;;6.38;;
35715;SDS011;21840;44.920;8.616;2023-01-10T16:41:42;18.42;;;3.80;;
35715;SDS011;21840;44.920;8.616;2023-01-10T16:44:26;8.15;;;2.70;;
35715;SDS011;21840;44.920;8.616;2023-01-10T16:46:52;9.88;;;2.97;;
35715;SDS011;21840;44.920;8.616;2023-01-10T16:49:18;12.52;;;3.50;;
35715;SDS011;21840;44.920;8.616;2023-01-10T16:51:45;16.83;;;3.42;;
35715;SDS011;21840;44.920;8.616;2023-01-10T16:54:14;13.32;;;2.13;;
35715;SDS011;21840;44.920;8.616;2023-01-10T16:56:44;6.60;;;2.35;;
35715;SDS011;21840;44.920;8.616;2023-01-10T16:59:14;5.95;;;2.80;;
35715;SDS011;21840;44.920;8.616;2023-01-10T17:02:00;17.42;;;4.63;;
35715;SDS011;21840;44.920;8.616;2023-01-10T17:04:26;20.08;;;6.93;;
35715;SDS011;21840;44.920;8.616;2023-01-10T17:06:59;11.63;;;3.17;;
35715;SDS011;21840;44.920;8.616;2023-01-10T17:09:26;11.60;;;3.53;;
35715;SDS011;21840;44.920;8.616;2023-01-10T17:11:59;16.95;;;3.95;;
35715;SDS011;21840;44.920;8.616;2023-01-10T17:14:30;12.13;;;3.33;;
35715;SDS011;21840;44.920;8.616;2023-01-10T17:16:57;14.23;;;4.43;;
35715;SDS011;21840;44.920;8.616;2023-01-10T17:19:23;17.00;;;4.07;;